| time (UTC) | temp C | wind direction | speed KPH | gust KPH | rain 1hr cm | rain 24hr cm | rain mn cm | humidity % | barometer mb |
| 20260506143015 | 21 | 225 | 4.8 | 19.3 | 0.00 | 0.00 | 0.00 | 61 | 1008.4 |
| 20260506142516 | 21 | 225 | 1.6 | 8.0 | 0.00 | 0.00 | 0.00 | 62 | 1008.2 |
| 20260506142015 | 21 | 225 | 6.4 | 14.5 | 0.00 | 0.00 | 0.00 | 61 | 1008.3 |
| 20260506141516 | 21 | 202 | 3.2 | 16.1 | 0.00 | 0.00 | 0.00 | 61 | 1008.3 |
| 20260506141015 | 21 | 225 | 3.2 | 12.9 | 0.00 | 0.00 | 0.00 | 63 | 1008.4 |
| 20260506140515 | 21 | 202 | 1.6 | 9.7 | 0.00 | 0.00 | 0.00 | 62 | 1008.2 |
| 20260506140015 | 21 | 225 | 4.8 | 9.7 | 0.00 | 0.00 | 0.00 | 62 | 1008.3 |
| 20260506135516 | 21 | 225 | 3.2 | 16.1 | 0.00 | 0.00 | 0.00 | 62 | 1008.6 |
| 20260506135031 | 21 | 225 | 3.2 | 11.3 | 0.00 | 0.00 | 0.00 | 63 | 1008.5 |
| 20260506134515 | 21 | 225 | 4.8 | 12.9 | 0.00 | 0.00 | 0.00 | 63 | 1008.5 |
| 20260506134015 | 21 | 225 | 4.8 | 14.5 | 0.00 | 0.00 | 0.00 | 62 | 1008.5 |
| 20260506133515 | 21 | 225 | 4.8 | 14.5 | 0.00 | 0.00 | 0.00 | 63 | 1008.7 |
| 20260506133015 | 21 | 202 | 4.8 | 12.9 | 0.00 | 0.00 | 0.00 | 63 | 1008.5 |
| 20260506132515 | 20 | 225 | 3.2 | 11.3 | 0.00 | 0.00 | 0.00 | 64 | 1008.4 |
| 20260506132015 | 20 | 225 | 4.8 | 14.5 | 0.00 | 0.00 | 0.00 | 64 | 1008.5 |
| 20260506131515 | 20 | 225 | 4.8 | 11.3 | 0.00 | 0.00 | 0.00 | 64 | 1008.7 |
| 20260506131015 | 20 | 202 | 6.4 | 17.7 | 0.00 | 0.00 | 0.00 | 65 | 1008.7 |
| 20260506130515 | 20 | 225 | 3.2 | 11.3 | 0.00 | 0.00 | 0.00 | 65 | 1008.6 |
| 20260506130015 | 20 | 202 | 4.8 | 14.5 | 0.00 | 0.00 | 0.00 | 66 | 1008.5 |
| 20260506125515 | 20 | 225 | 4.8 | 16.1 | 0.00 | 0.00 | 0.00 | 66 | 1008.4 |
| 20260506125015 | 20 | 225 | 3.2 | 9.7 | 0.00 | 0.00 | 0.00 | 66 | 1008.3 |
| 20260506124515 | 20 | 225 | 1.6 | 6.4 | 0.00 | 0.00 | 0.00 | 66 | 1008.2 |
| 20260506124015 | 20 | 225 | 3.2 | 11.3 | 0.00 | 0.00 | 0.00 | 66 | 1008.1 |
| 20260506123515 | 20 | 225 | 3.2 | 11.3 | 0.00 | 0.00 | 0.00 | 66 | 1008.2 |
| 20260506123015 | 20 | 225 | 1.6 | 11.3 | 0.00 | 0.00 | 0.00 | 66 | 1008.2 |
| 20260506122515 | 20 | 202 | 1.6 | 16.1 | 0.00 | 0.00 | 0.00 | 66 | 1008.2 |
| 20260506122015 | 20 | 202 | 4.8 | 16.1 | 0.00 | 0.00 | 0.00 | 66 | 1008.3 |
| 20260506121515 | 20 | 225 | 1.6 | 9.7 | 0.00 | 0.00 | 0.00 | 67 | 1008.5 |
| 20260506121015 | 20 | 225 | 4.8 | 16.1 | 0.00 | 0.00 | 0.00 | 66 | 1008.6 |
| 20260506120515 | 20 | 202 | 3.2 | 9.7 | 0.00 | 0.00 | 0.00 | 67 | 1008.7 |
| 20260506120015 | 20 | 225 | 3.2 | 9.7 | 0.00 | 0.00 | 0.00 | 67 | 1008.8 |
| 20260506115515 | 20 | 225 | 3.2 | 14.5 | 0.00 | 0.00 | 0.00 | 67 | 1008.8 |
| 20260506115015 | 20 | 202 | 3.2 | 19.3 | 0.00 | 0.00 | 0.00 | 67 | 1008.9 |
| 20260506114515 | 20 | 225 | 3.2 | 8.0 | 0.00 | 0.00 | 0.00 | 68 | 1008.8 |
| 20260506114015 | 20 | 225 | 4.8 | 11.3 | 0.00 | 0.00 | 0.00 | 67 | 1008.9 |
| 20260506113516 | 19 | 202 | 4.8 | 19.3 | 0.00 | 0.00 | 0.00 | 67 | 1008.9 |
| 20260506113015 | 19 | 225 | 3.2 | 12.9 | 0.00 | 0.00 | 0.00 | 68 | 1008.8 |
| 20260506112515 | 19 | 225 | 1.6 | 9.7 | 0.00 | 0.00 | 0.00 | 69 | 1008.8 |
| 20260506112015 | 19 | 202 | 3.2 | 11.3 | 0.00 | 0.00 | 0.00 | 69 | 1008.8 |
| 20260506111515 | 19 | 225 | 3.2 | 11.3 | 0.00 | 0.00 | 0.00 | 69 | 1008.9 |
| 20260506111015 | 19 | 225 | 3.2 | 11.3 | 0.00 | 0.00 | 0.00 | 69 | 1008.7 |
| 20260506110515 | 19 | 225 | 1.6 | 6.4 | 0.00 | 0.00 | 0.00 | 70 | 1008.7 |
| 20260506110015 | 18 | 225 | 1.6 | 6.4 | 0.00 | 0.00 | 0.00 | 70 | 1008.6 |
| 20260506105515 | 18 | 225 | 3.2 | 14.5 | 0.00 | 0.00 | 0.00 | 70 | 1008.5 |
| 20260506105015 | 18 | 225 | 1.6 | 9.7 | 0.00 | 0.00 | 0.00 | 70 | 1008.5 |
| 20260506104530 | 18 | 225 | 3.2 | 12.9 | 0.00 | 0.00 | 0.00 | 70 | 1008.5 |
| 20260506104015 | 18 | 225 | 3.2 | 12.9 | 0.00 | 0.00 | 0.00 | 70 | 1008.6 |
| 20260506103515 | 18 | 225 | 3.2 | 8.0 | 0.00 | 0.00 | 0.00 | 70 | 1008.7 |
| 20260506103017 | 18 | 202 | 3.2 | 8.0 | 0.00 | 0.00 | 0.00 | 70 | 1008.6 |
| 20260506102517 | 18 | 202 | 1.6 | 9.7 | 0.00 | 0.00 | 0.00 | 70 | 1008.5 |
| 20260506102017 | 18 | 202 | 1.6 | 6.4 | 0.00 | 0.00 | 0.00 | 71 | 1008.5 |
| 20260506101517 | 18 | 225 | 1.6 | 9.7 | 0.00 | 0.00 | 0.00 | 70 | 1008.5 |
| 20260506101017 | 18 | 0.0 | 4.8 | 0.00 | 0.00 | 0.00 | 70 | 1008.5 | |
| 20260506100517 | 18 | 180 | 1.6 | 16.1 | 0.00 | 0.00 | 0.00 | 71 | 1008.4 |
| 20260506100017 | 18 | 225 | 1.6 | 6.4 | 0.00 | 0.00 | 0.00 | 71 | 1008.2 |
| 20260506095517 | 18 | 202 | 1.6 | 6.4 | 0.00 | 0.00 | 0.00 | 71 | 1008.2 |
| 20260506095017 | 18 | 202 | 1.6 | 6.4 | 0.00 | 0.00 | 0.00 | 72 | 1008.2 |
| 20260506094517 | 18 | 225 | 1.6 | 8.0 | 0.00 | 0.00 | 0.00 | 72 | 1008.3 |
| 20260506094017 | 18 | 0.0 | 4.8 | 0.00 | 0.00 | 0.00 | 72 | 1008.4 | |
| 20260506093517 | 18 | 0.0 | 4.8 | 0.00 | 0.00 | 0.00 | 72 | 1008.4 | |
| 20260506093017 | 18 | 225 | 1.6 | 9.7 | 0.00 | 0.00 | 0.00 | 72 | 1008.4 |
| 20260506092517 | 18 | 225 | 1.6 | 8.0 | 0.00 | 0.00 | 0.00 | 71 | 1008.4 |
| 20260506092018 | 18 | 0.0 | 4.8 | 0.00 | 0.00 | 0.00 | 71 | 1008.4 | |
| 20260506091517 | 18 | 225 | 1.6 | 6.4 | 0.00 | 0.00 | 0.00 | 71 | 1008.4 |
| 20260506091017 | 18 | 0.0 | 4.8 | 0.00 | 0.00 | 0.00 | 71 | 1008.5 | |
| 20260506090517 | 18 | 0.0 | 0.0 | 0.00 | 0.00 | 0.00 | 70 | 1008.5 | |
| 20260506090017 | 18 | 0.0 | 4.8 | 0.00 | 0.00 | 0.00 | 70 | 1008.5 | |
| 20260506085517 | 18 | 225 | 1.6 | 8.0 | 0.00 | 0.00 | 0.00 | 70 | 1008.6 |
| 20260506085017 | 18 | 0.0 | 6.4 | 0.00 | 0.00 | 0.00 | 70 | 1008.6 | |
| 20260506084517 | 18 | 0.0 | 6.4 | 0.00 | 0.00 | 0.00 | 69 | 1008.6 | |
| 20260506084017 | 18 | 0.0 | 4.8 | 0.00 | 0.00 | 0.00 | 69 | 1008.6 | |
| 20260506083517 | 19 | 0.0 | 4.8 | 0.00 | 0.00 | 0.00 | 69 | 1008.6 | |
| 20260506083017 | 19 | 0.0 | 0.0 | 0.00 | 0.00 | 0.00 | 69 | 1008.6 | |
| 20260506082516 | 19 | 0.0 | 0.0 | 0.00 | 0.00 | 0.00 | 69 | 1008.5 | |
| 20260506082016 | 19 | 0.0 | 3.2 | 0.00 | 0.00 | 0.00 | 69 | 1008.6 | |
| 20260506081517 | 19 | 0.0 | 3.2 | 0.00 | 0.00 | 0.00 | 68 | 1008.6 | |
| 20260506081017 | 19 | 225 | 1.6 | 6.4 | 0.00 | 0.00 | 0.00 | 68 | 1008.6 |
| 20260506080516 | 19 | 225 | 1.6 | 6.4 | 0.00 | 0.00 | 0.00 | 68 | 1008.6 |
| 20260506073517 | 20 | 202 | 1.6 | 8.0 | 0.00 | 0.00 | 0.00 | 66 | 1008.7 |
| 20260506073017 | 20 | 202 | 1.6 | 8.0 | 0.00 | 0.00 | 0.00 | 66 | 1008.7 |
| 20260506072516 | 20 | 202 | 1.6 | 6.4 | 0.00 | 0.00 | 0.00 | 65 | 1008.7 |
| 20260506072016 | 20 | 0.0 | 9.7 | 0.00 | 0.00 | 0.00 | 65 | 1008.7 | |
| 20260506071517 | 20 | 202 | 1.6 | 8.0 | 0.00 | 0.00 | 0.00 | 65 | 1008.7 |
| 20260506071016 | 20 | 0.0 | 4.8 | 0.00 | 0.00 | 0.00 | 65 | 1008.8 | |
| 20260506070516 | 20 | 0.0 | 0.0 | 0.00 | 0.00 | 0.00 | 64 | 1008.8 | |
| 20260506062516 | 20 | 225 | 1.6 | 4.8 | 0.00 | 0.00 | 0.00 | 62 | 1008.9 |
| 20260506062016 | 20 | 202 | 1.6 | 8.0 | 0.00 | 0.00 | 0.00 | 62 | 1008.9 |
| 20260506061516 | 20 | 225 | 1.6 | 6.4 | 0.00 | 0.00 | 0.00 | 62 | 1008.9 |
| 20260506061016 | 20 | 225 | 1.6 | 8.0 | 0.00 | 0.00 | 0.00 | 61 | 1008.9 |
| 20260506060517 | 20 | 202 | 1.6 | 9.7 | 0.00 | 0.00 | 0.00 | 61 | 1008.8 |
| 20260506051016 | 21 | 0.0 | 6.4 | 0.00 | 0.00 | 0.00 | 57 | 1009.5 | |
| 20260506050516 | 21 | 202 | 1.6 | 6.4 | 0.00 | 0.00 | 0.00 | 57 | 1009.6 |
| 20260506045016 | 21 | 0.0 | 3.2 | 0.00 | 0.00 | 0.00 | 56 | 1009.5 | |
| 20260506044516 | 21 | 202 | 1.6 | 12.9 | 0.00 | 0.00 | 0.00 | 56 | 1009.5 |
| 20260506044016 | 21 | 225 | 1.6 | 6.4 | 0.00 | 0.00 | 0.00 | 56 | 1009.5 |
| 20260506043531 | 21 | 225 | 1.6 | 6.4 | 0.00 | 0.00 | 0.00 | 56 | 1009.5 |
| 20260506043016 | 21 | 202 | 3.2 | 12.9 | 0.00 | 0.00 | 0.00 | 55 | 1009.5 |
| 20260506042516 | 21 | 225 | 1.6 | 8.0 | 0.00 | 0.00 | 0.00 | 55 | 1009.5 |
| 20260506042016 | 21 | 202 | 1.6 | 11.3 | 0.00 | 0.00 | 0.00 | 55 | 1009.5 |
| 20260506041516 | 21 | 225 | 1.6 | 8.0 | 0.00 | 0.00 | 0.00 | 54 | 1009.4 |
| 20260506041016 | 21 | 0.0 | 17.7 | 0.00 | 0.00 | 0.00 | 54 | 1009.4 | |
| 20260506040516 | 21 | 225 | 1.6 | 16.1 | 0.00 | 0.00 | 0.00 | 54 | 1009.4 |
| 20260506040016 | 21 | 225 | 1.6 | 6.4 | 0.00 | 0.00 | 0.00 | 54 | 1009.4 |
| 20260506035517 | 21 | 225 | 1.6 | 12.9 | 0.00 | 0.00 | 0.00 | 54 | 1009.4 |
| 20260506035017 | 21 | 202 | 3.2 | 12.9 | 0.00 | 0.00 | 0.00 | 53 | 1009.4 |
| 20260506034517 | 21 | 225 | 3.2 | 11.3 | 0.00 | 0.00 | 0.00 | 53 | 1009.4 |
| 20260506034017 | 21 | 225 | 3.2 | 9.7 | 0.00 | 0.00 | 0.00 | 53 | 1009.4 |
| 20260506033517 | 21 | 225 | 4.8 | 12.9 | 0.00 | 0.00 | 0.00 | 53 | 1009.4 |
| 20260506033016 | 21 | 225 | 3.2 | 9.7 | 0.00 | 0.00 | 0.00 | 53 | 1009.5 |
| 20260506032516 | 21 | 225 | 1.6 | 6.4 | 0.00 | 0.00 | 0.00 | 52 | 1009.3 |
| 20260506032016 | 22 | 225 | 3.2 | 16.1 | 0.00 | 0.00 | 0.00 | 52 | 1009.4 |
| 20260506031516 | 22 | 225 | 1.6 | 9.7 | 0.00 | 0.00 | 0.00 | 52 | 1009.4 |
| 20260506031016 | 22 | 225 | 3.2 | 14.5 | 0.00 | 0.00 | 0.00 | 51 | 1009.3 |
| 20260506030517 | 22 | 225 | 3.2 | 9.7 | 0.00 | 0.00 | 0.00 | 51 | 1009.3 |
| 20260506030017 | 22 | 225 | 1.6 | 8.0 | 0.00 | 0.00 | 0.00 | 51 | 1009.2 |
| 20260506025516 | 22 | 202 | 3.2 | 9.7 | 0.00 | 0.00 | 0.00 | 50 | 1009.1 |
| 20260506025017 | 22 | 225 | 1.6 | 11.3 | 0.00 | 0.00 | 0.00 | 50 | 1009.1 |
| 20260506024516 | 22 | 225 | 1.6 | 14.5 | 0.00 | 0.00 | 0.00 | 50 | 1009.1 |
| 20260506024016 | 22 | 202 | 1.6 | 9.7 | 0.00 | 0.00 | 0.00 | 49 | 1009.1 |
| 20260506023517 | 22 | 225 | 1.6 | 8.0 | 0.00 | 0.00 | 0.00 | 48 | 1009.2 |
| 20260506023016 | 23 | 225 | 1.6 | 6.4 | 0.00 | 0.00 | 0.00 | 48 | 1009.2 |
| 20260506022516 | 23 | 135 | 1.6 | 9.7 | 0.00 | 0.00 | 0.00 | 47 | 1009.2 |
| 20260506022016 | 23 | 135 | 1.6 | 14.5 | 0.00 | 0.00 | 0.00 | 46 | 1009.1 |
| 20260506021516 | 23 | 0.0 | 9.7 | 0.00 | 0.00 | 0.00 | 44 | 1009.0 | |
| 20260506021016 | 23 | 202 | 1.6 | 8.0 | 0.00 | 0.00 | 0.00 | 44 | 1009.1 |
| 20260506020517 | 23 | 225 | 3.2 | 12.9 | 0.00 | 0.00 | 0.00 | 43 | 1008.9 |
| 20260506020016 | 23 | 0.0 | 4.8 | 0.00 | 0.00 | 0.00 | 42 | 1008.9 | |
| 20260506015516 | 24 | 225 | 1.6 | 11.3 | 0.00 | 0.00 | 0.00 | 42 | 1008.9 |
| 20260506015016 | 24 | 202 | 1.6 | 14.5 | 0.00 | 0.00 | 0.00 | 41 | 1008.9 |
| 20260506014516 | 24 | 225 | 4.8 | 20.9 | 0.00 | 0.00 | 0.00 | 41 | 1008.8 |
| 20260506014017 | 24 | 202 | 3.2 | 19.3 | 0.00 | 0.00 | 0.00 | 40 | 1008.9 |
| 20260506013516 | 24 | 225 | 3.2 | 12.9 | 0.00 | 0.00 | 0.00 | 40 | 1008.8 |
| 20260506013031 | 24 | 225 | 1.6 | 11.3 | 0.00 | 0.00 | 0.00 | 39 | 1008.7 |
| 20260506012516 | 25 | 202 | 1.6 | 8.0 | 0.00 | 0.00 | 0.00 | 38 | 1008.6 |
| 20260506012016 | 25 | 225 | 1.6 | 6.4 | 0.00 | 0.00 | 0.00 | 38 | 1008.6 |
| 20260506011517 | 25 | 0.0 | 4.8 | 0.00 | 0.00 | 0.00 | 38 | 1008.5 | |
| 20260506011016 | 25 | 0.0 | 6.4 | 0.00 | 0.00 | 0.00 | 37 | 1008.5 | |
| 20260506010516 | 25 | 202 | 1.6 | 8.0 | 0.00 | 0.00 | 0.00 | 37 | 1008.4 |
| 20260506010016 | 25 | 202 | 3.2 | 8.0 | 0.00 | 0.00 | 0.00 | 36 | 1008.4 |
| 20260506005516 | 25 | 0.0 | 3.2 | 0.00 | 0.00 | 0.00 | 37 | 1008.4 | |
| 20260506005016 | 25 | 0.0 | 3.2 | 0.00 | 0.00 | 0.00 | 36 | 1008.3 | |
| 20260506004516 | 25 | 0.0 | 4.8 | 0.00 | 0.00 | 0.00 | 36 | 1008.2 | |
| 20260506004016 | 25 | 0.0 | 4.8 | 0.00 | 0.00 | 0.00 | 35 | 1008.2 | |
| 20260506003516 | 25 | 202 | 3.2 | 14.5 | 0.00 | 0.00 | 0.00 | 34 | 1008.1 |
| 20260506003016 | 25 | 202 | 1.6 | 6.4 | 0.00 | 0.00 | 0.00 | 34 | 1008.0 |
| 20260506002516 | 26 | 202 | 1.6 | 6.4 | 0.00 | 0.00 | 0.00 | 33 | 1008.0 |
| 20260506002016 | 26 | 225 | 1.6 | 6.4 | 0.00 | 0.00 | 0.00 | 32 | 1007.9 |
| 20260506001516 | 26 | 225 | 3.2 | 11.3 | 0.00 | 0.00 | 0.00 | 32 | 1007.8 |
| 20260506001016 | 26 | 225 | 4.8 | 12.9 | 0.00 | 0.00 | 0.00 | 31 | 1007.8 |
| 20260506000516 | 26 | 225 | 1.6 | 11.3 | 0.00 | 0.00 | 0.00 | 31 | 1007.9 |
| 20260506000016 | 26 | 225 | 1.6 | 11.3 | 0.00 | 0.00 | 0.00 | 30 | 1007.8 |
| 20260505235516 | 26 | 225 | 3.2 | 12.9 | 0.00 | 0.00 | 0.00 | 30 | 1007.8 |
| 20260505235016 | 26 | 225 | 3.2 | 14.5 | 0.00 | 0.00 | 0.00 | 30 | 1007.8 |
| 20260505234516 | 26 | 225 | 3.2 | 9.7 | 0.00 | 0.00 | 0.00 | 30 | 1007.7 |
| 20260505234016 | 26 | 225 | 4.8 | 11.3 | 0.00 | 0.00 | 0.00 | 29 | 1007.7 |
| 20260505233516 | 26 | 225 | 3.2 | 9.7 | 0.00 | 0.00 | 0.00 | 29 | 1007.6 |
| 20260505233016 | 26 | 202 | 1.6 | 9.7 | 0.00 | 0.00 | 0.00 | 29 | 1007.7 |
| 20260505232516 | 26 | 202 | 1.6 | 11.3 | 0.00 | 0.00 | 0.00 | 28 | 1007.6 |
| 20260505232016 | 27 | 225 | 1.6 | 8.0 | 0.00 | 0.00 | 0.00 | 28 | 1007.6 |
| 20260505231516 | 27 | 225 | 3.2 | 12.9 | 0.00 | 0.00 | 0.00 | 27 | 1007.5 |
| 20260505231016 | 27 | 225 | 3.2 | 12.9 | 0.00 | 0.00 | 0.00 | 27 | 1007.5 |
| 20260505230516 | 27 | 202 | 8.0 | 20.9 | 0.00 | 0.00 | 0.00 | 27 | 1007.3 |
| 20260505230016 | 27 | 225 | 3.2 | 16.1 | 0.00 | 0.00 | 0.00 | 27 | 1007.2 |
| 20260505225516 | 27 | 225 | 4.8 | 19.3 | 0.00 | 0.00 | 0.00 | 26 | 1007.3 |
| 20260505225016 | 27 | 225 | 8.0 | 22.5 | 0.00 | 0.00 | 0.00 | 26 | 1007.2 |
| 20260505224516 | 27 | 225 | 3.2 | 14.5 | 0.00 | 0.00 | 0.00 | 26 | 1007.1 |
| 20260505224016 | 27 | 202 | 6.4 | 17.7 | 0.00 | 0.00 | 0.00 | 25 | 1007.0 |
| 20260505223516 | 27 | 225 | 3.2 | 12.9 | 0.00 | 0.00 | 0.00 | 25 | 1007.1 |
| 20260505223016 | 27 | 225 | 8.0 | 24.1 | 0.00 | 0.00 | 0.00 | 25 | 1007.0 |
| 20260505222531 | 27 | 225 | 6.4 | 16.1 | 0.00 | 0.00 | 0.00 | 25 | 1007.0 |
| 20260505222016 | 27 | 202 | 8.0 | 20.9 | 0.00 | 0.00 | 0.00 | 25 | 1007.0 |
| 20260505221516 | 27 | 225 | 6.4 | 20.9 | 0.00 | 0.00 | 0.00 | 26 | 1006.9 |
| 20260505221016 | 27 | 225 | 3.2 | 17.7 | 0.00 | 0.00 | 0.00 | 25 | 1006.9 |
| 20260505220516 | 27 | 225 | 9.7 | 24.1 | 0.00 | 0.00 | 0.00 | 24 | 1006.9 |
| 20260505220016 | 28 | 202 | 8.0 | 25.7 | 0.00 | 0.00 | 0.00 | 25 | 1007.0 |
| 20260505215516 | 27 | 225 | 9.7 | 24.1 | 0.00 | 0.00 | 0.00 | 25 | 1006.8 |
| 20260505215016 | 27 | 202 | 6.4 | 14.5 | 0.00 | 0.00 | 0.00 | 25 | 1006.7 |
| 20260505214516 | 28 | 225 | 3.2 | 11.3 | 0.00 | 0.00 | 0.00 | 26 | 1006.7 |
| 20260505214016 | 28 | 225 | 3.2 | 11.3 | 0.00 | 0.00 | 0.00 | 26 | 1006.6 |
| 20260505213516 | 28 | 225 | 6.4 | 19.3 | 0.00 | 0.00 | 0.00 | 26 | 1006.5 |
| 20260505213016 | 28 | 225 | 8.0 | 20.9 | 0.00 | 0.00 | 0.00 | 26 | 1006.5 |
| 20260505212516 | 28 | 202 | 11.3 | 27.4 | 0.00 | 0.00 | 0.00 | 25 | 1006.5 |
| 20260505212016 | 28 | 202 | 8.0 | 22.5 | 0.00 | 0.00 | 0.00 | 25 | 1006.5 |
| 20260505211516 | 28 | 202 | 9.7 | 20.9 | 0.00 | 0.00 | 0.00 | 26 | 1006.5 |
| 20260505211016 | 28 | 202 | 6.4 | 17.7 | 0.00 | 0.00 | 0.00 | 27 | 1006.4 |
| 20260505210516 | 28 | 225 | 9.7 | 22.5 | 0.00 | 0.00 | 0.00 | 26 | 1006.4 |
| 20260505210016 | 28 | 225 | 12.9 | 33.8 | 0.00 | 0.00 | 0.00 | 26 | 1006.5 |
| 20260505205516 | 28 | 202 | 12.9 | 30.6 | 0.00 | 0.00 | 0.00 | 26 | 1006.5 |
| 20260505205015 | 28 | 202 | 14.5 | 37.0 | 0.00 | 0.00 | 0.00 | 26 | 1006.6 |
| 20260505204516 | 28 | 225 | 11.3 | 30.6 | 0.00 | 0.00 | 0.00 | 24 | 1006.4 |
| 20260505204016 | 28 | 202 | 11.3 | 24.1 | 0.00 | 0.00 | 0.00 | 24 | 1006.5 |
| 20260505203516 | 29 | 225 | 11.3 | 27.4 | 0.00 | 0.00 | 0.00 | 24 | 1006.7 |
| 20260505203016 | 29 | 225 | 6.4 | 20.9 | 0.00 | 0.00 | 0.00 | 26 | 1006.5 |
| 20260505202516 | 28 | 202 | 6.4 | 22.5 | 0.00 | 0.00 | 0.00 | 26 | 1006.6 |
| 20260505202016 | 28 | 202 | 6.4 | 24.1 | 0.00 | 0.00 | 0.00 | 26 | 1006.7 |
| 20260505201521 | 28 | 202 | 8.0 | 17.7 | 0.00 | 0.00 | 0.00 | 27 | 1006.6 |
| 20260505201015 | 28 | 202 | 6.4 | 19.3 | 0.00 | 0.00 | 0.00 | 27 | 1006.6 |
| 20260505200516 | 28 | 202 | 8.0 | 24.1 | 0.00 | 0.00 | 0.00 | 29 | 1006.6 |
| 20260505200015 | 28 | 202 | 9.7 | 24.1 | 0.00 | 0.00 | 0.00 | 26 | 1006.6 |
| 20260505195515 | 28 | 202 | 8.0 | 27.4 | 0.00 | 0.00 | 0.00 | 26 | 1006.7 |
| 20260505195015 | 28 | 225 | 12.9 | 33.8 | 0.00 | 0.00 | 0.00 | 27 | 1006.9 |
| 20260505194515 | 28 | 202 | 9.7 | 33.8 | 0.00 | 0.00 | 0.00 | 27 | 1006.9 |
| 20260505194015 | 28 | 202 | 9.7 | 25.7 | 0.00 | 0.00 | 0.00 | 26 | 1006.8 |
| 20260505193515 | 28 | 202 | 6.4 | 22.5 | 0.00 | 0.00 | 0.00 | 28 | 1007.0 |
| 20260505193015 | 28 | 202 | 4.8 | 16.1 | 0.00 | 0.00 | 0.00 | 29 | 1006.9 |
| 20260505192516 | 28 | 202 | 4.8 | 25.7 | 0.00 | 0.00 | 0.00 | 29 | 1007.2 |
| 20260505192031 | 28 | 202 | 9.7 | 24.1 | 0.00 | 0.00 | 0.00 | 27 | 1007.2 |
| 20260505191515 | 28 | 202 | 4.8 | 17.7 | 0.00 | 0.00 | 0.00 | 28 | 1007.2 |
| 20260505191016 | 28 | 202 | 6.4 | 16.1 | 0.00 | 0.00 | 0.00 | 29 | 1007.2 |
| 20260505190515 | 28 | 225 | 8.0 | 19.3 | 0.00 | 0.00 | 0.00 | 29 | 1007.3 |
| 20260505190015 | 28 | 225 | 4.8 | 16.1 | 0.00 | 0.00 | 0.00 | 29 | 1007.3 |
| 20260505185515 | 28 | 225 | 9.7 | 22.5 | 0.00 | 0.00 | 0.00 | 28 | 1007.4 |
| 20260505185015 | 28 | 202 | 4.8 | 16.1 | 0.00 | 0.00 | 0.00 | 28 | 1007.4 |
| 20260505184516 | 28 | 202 | 6.4 | 22.5 | 0.00 | 0.00 | 0.00 | 29 | 1007.6 |
| 20260505184015 | 28 | 225 | 8.0 | 19.3 | 0.00 | 0.00 | 0.00 | 29 | 1007.8 |
| 20260505183516 | 28 | 225 | 6.4 | 22.5 | 0.00 | 0.00 | 0.00 | 28 | 1007.9 |
| 20260505183015 | 28 | 202 | 8.0 | 20.9 | 0.00 | 0.00 | 0.00 | 30 | 1007.8 |
| 20260505182515 | 28 | 202 | 8.0 | 16.1 | 0.00 | 0.00 | 0.00 | 31 | 1007.8 |
| 20260505182015 | 28 | 225 | 6.4 | 17.7 | 0.00 | 0.00 | 0.00 | 31 | 1007.8 |
| 20260505181515 | 28 | 202 | 6.4 | 24.1 | 0.00 | 0.00 | 0.00 | 31 | 1007.8 |
| 20260505181015 | 28 | 202 | 6.4 | 22.5 | 0.00 | 0.00 | 0.00 | 30 | 1008.0 |
| 20260505180515 | 28 | 202 | 8.0 | 16.1 | 0.00 | 0.00 | 0.00 | 33 | 1007.9 |
| 20260505180015 | 28 | 225 | 6.4 | 16.1 | 0.00 | 0.00 | 0.00 | 32 | 1007.9 |
| 20260505175515 | 28 | 225 | 8.0 | 14.5 | 0.00 | 0.00 | 0.00 | 33 | 1008.0 |
| 20260505175015 | 28 | 225 | 9.7 | 27.4 | 0.00 | 0.00 | 0.00 | 32 | 1008.1 |
| 20260505174516 | 28 | 225 | 11.3 | 27.4 | 0.00 | 0.00 | 0.00 | 31 | 1008.1 |
| 20260505174015 | 28 | 225 | 4.8 | 16.1 | 0.00 | 0.00 | 0.00 | 32 | 1008.2 |
| 20260505173515 | 28 | 225 | 6.4 | 16.1 | 0.00 | 0.00 | 0.00 | 34 | 1008.2 |
| 20260505173015 | 28 | 202 | 9.7 | 20.9 | 0.00 | 0.00 | 0.00 | 32 | 1008.3 |
| 20260505172515 | 28 | 225 | 8.0 | 20.9 | 0.00 | 0.00 | 0.00 | 34 | 1008.4 |
| 20260505172015 | 28 | 202 | 8.0 | 16.1 | 0.00 | 0.00 | 0.00 | 33 | 1008.5 |
| 20260505171515 | 28 | 202 | 4.8 | 12.9 | 0.00 | 0.00 | 0.00 | 35 | 1008.6 |
| 20260505171015 | 28 | 225 | 6.4 | 19.3 | 0.00 | 0.00 | 0.00 | 34 | 1008.6 |
| 20260505170515 | 28 | 225 | 3.2 | 14.5 | 0.00 | 0.00 | 0.00 | 36 | 1008.6 |
| 20260505170015 | 28 | 225 | 6.4 | 14.5 | 0.00 | 0.00 | 0.00 | 35 | 1008.6 |
| 20260505165515 | 28 | 202 | 4.8 | 12.9 | 0.00 | 0.00 | 0.00 | 35 | 1008.7 |
| 20260505165015 | 27 | 247 | 4.8 | 12.9 | 0.00 | 0.00 | 0.00 | 37 | 1008.8 |
| 20260505164515 | 27 | 0.0 | 4.8 | 0.00 | 0.00 | 0.00 | 37 | 1008.9 | |
| 20260505164015 | 27 | 225 | 3.2 | 14.5 | 0.00 | 0.00 | 0.00 | 39 | 1008.9 |
| 20260505163515 | 27 | 225 | 1.6 | 8.0 | 0.00 | 0.00 | 0.00 | 38 | 1009.0 |
| 20260505163015 | 26 | 225 | 1.6 | 8.0 | 0.00 | 0.00 | 0.00 | 38 | 1009.0 |
| 20260505162515 | 26 | 202 | 4.8 | 12.9 | 0.00 | 0.00 | 0.00 | 40 | 1009.2 |
| 20260505162015 | 26 | 225 | 3.2 | 19.3 | 0.00 | 0.00 | 0.00 | 39 | 1009.2 |
| 20260505161531 | 26 | 225 | 1.6 | 11.3 | 0.00 | 0.00 | 0.00 | 41 | 1009.2 |
| 20260505161015 | 26 | 225 | 3.2 | 11.3 | 0.00 | 0.00 | 0.00 | 41 | 1009.3 |
| 20260505160515 | 25 | 225 | 4.8 | 14.5 | 0.00 | 0.00 | 0.00 | 42 | 1009.4 |
| 20260505153015 | 24 | 0.0 | 6.4 | 0.00 | 0.00 | 0.00 | 45 | 1009.7 | |
| 20260505152517 | 24 | 225 | 3.2 | 11.3 | 0.00 | 0.00 | 0.00 | 45 | 1009.9 |
| 20260505152017 | 24 | 225 | 3.2 | 11.3 | 0.00 | 0.00 | 0.00 | 45 | 1010.1 |
| 20260505151517 | 24 | 225 | 3.2 | 14.5 | 0.00 | 0.00 | 0.00 | 44 | 1010.0 |
| 20260505151017 | 23 | 225 | 3.2 | 11.3 | 0.00 | 0.00 | 0.00 | 45 | 1010.0 |
| 20260505150517 | 23 | 225 | 1.6 | 8.0 | 0.00 | 0.00 | 0.00 | 45 | 1009.9 |